Time;durP1;ratioP1;P1;durP2;ratioP2;P2;SDS_P1;SDS_P2;PMS_P1;PMS_P2;Temp;Humidity;BMP_temperature;BMP_pressure;BME280_temperature;BME280_humidity;BME280_pressure;Samples;Min_cycle;Max_cycle;Signal;HPM_P1;HPM_P2
2021/12/24 00:01:03;;;;;;;7.30;6.80;;;8.30;78.60;;;;;;5055741;28;20205;-54
2021/12/24 00:03:30;;;;;;;8.07;7.40;;;8.30;78.60;;;;;;5055726;28;20236;-60
2021/12/24 00:05:57;;;;;;;7.80;7.10;;;8.40;78.50;;;;;;5055552;28;20224;-52
2021/12/24 00:08:24;;;;;;;8.55;7.53;;;8.50;78.20;;;;;;5054442;28;20355;-62
2021/12/24 00:10:58;;;;;;;7.88;7.35;;;8.50;78.10;;;;;;5055578;28;20328;-51
2021/12/24 00:13:26;;;;;;;8.25;7.53;;;8.50;78.10;;;;;;5055519;28;20681;-56
2021/12/24 00:16:03;;;;;;;8.13;7.43;;;8.60;77.70;;;;;;5055562;28;20209;-52
2021/12/24 00:18:39;;;;;;;7.50;6.90;;;8.50;77.80;;;;;;5055590;28;20204;-52
2021/12/24 00:37:48;;;;;;;7.68;7.07;;;8.40;78.50;;;;;;5010774;28;20198;-53
2021/12/24 00:40:18;;;;;;;7.35;6.75;;;8.40;78.50;;;;;;5033939;28;20313;-53
2021/12/24 00:42:50;;;;;;;6.85;6.25;;;8.50;78.30;;;;;;5035069;28;20233;-54
2021/12/24 00:45:19;;;;;;;7.70;7.03;;;8.50;78.40;;;;;;5035241;28;20205;-52
2021/12/24 00:47:47;;;;;;;7.32;6.70;;;8.50;78.40;;;;;;5035152;28;20202;-53
2021/12/24 00:50:20;;;;;;;8.20;7.38;;;8.50;78.40;;;;;;5035159;28;20209;-54
2021/12/24 00:52:49;;;;;;;7.82;7.10;;;8.50;78.40;;;;;;5034932;28;20551;-50
2021/12/24 00:55:18;;;;;;;6.75;6.25;;;8.50;78.40;;;;;;5047270;28;20206;-57
2021/12/24 00:57:47;;;;;;;7.65;7.03;;;8.50;78.40;;;;;;5054810;28;20252;-52
2021/12/24 01:00:17;;;;;;;6.93;6.43;;;8.60;78.40;;;;;;5054834;28;20209;-53
2021/12/24 01:02:46;;;;;;;7.05;6.45;;;8.60;78.20;;;;;;5054825;28;20225;-61
2021/12/24 01:05:13;;;;;;;7.25;6.60;;;8.70;78.00;;;;;;5054668;28;20288;-59
2021/12/24 01:07:44;;;;;;;7.20;6.50;;;8.80;77.80;;;;;;5054349;28;20212;-51
2021/12/24 01:10:13;;;;;;;7.53;6.63;;;8.80;77.60;;;;;;5053216;28;20240;-54
2021/12/24 01:12:40;;;;;;;7.75;6.95;;;8.80;77.60;;;;;;5054645;28;20541;-57
2021/12/24 01:15:08;;;;;;;7.10;6.50;;;8.80;77.50;;;;;;5054516;28;20216;-59
2021/12/24 01:17:41;;;;;;;7.03;6.43;;;8.90;77.40;;;;;;5054395;28;20205;-55
2021/12/24 01:20:18;;;;;;;7.22;6.63;;;8.80;77.50;;;;;;5054296;28;20205;-55
2021/12/24 01:25:35;;;;;;;7.10;6.60;;;8.80;77.70;;;;;;5054264;28;20206;-53
2021/12/24 01:39:09;;;;;;;6.80;6.30;;;8.80;77.80;;;;;;5052751;28;20616;-57
2021/12/24 01:44:26;;;;;;;7.22;6.70;;;8.80;77.60;;;;;;5053117;28;20232;-52
2021/12/24 01:46:55;;;;;;;6.38;5.93;;;8.80;77.60;;;;;;5053905;28;20208;-51
2021/12/24 01:49:22;;;;;;;7.00;6.50;;;8.80;77.60;;;;;;5053846;28;20201;-55
2021/12/24 01:51:49;;;;;;;7.57;6.85;;;8.80;77.60;;;;;;5053738;28;20572;-63
2021/12/24 01:54:17;;;;;;;6.60;6.10;;;8.90;77.50;;;;;;5052425;28;20300;-60
2021/12/24 01:56:44;;;;;;;6.63;6.03;;;8.90;77.50;;;;;;5053693;28;20661;-52
2021/12/24 01:59:11;;;;;;;6.63;6.20;;;8.90;77.40;;;;;;5053767;28;20208;-55
2021/12/24 02:01:38;;;;;;;7.35;6.65;;;8.90;77.40;;;;;;5053719;28;20201;-56
2021/12/24 02:04:05;;;;;;;7.40;6.70;;;8.90;77.40;;;;;;5053460;28;20233;-53
2021/12/24 02:06:32;;;;;;;7.45;5.95;;;8.80;77.40;;;;;;5053358;28;20225;-50
2021/12/24 02:08:59;;;;;;;6.80;6.30;;;8.80;77.40;;;;;;5052005;28;20583;-59
2021/12/24 02:11:27;;;;;;;7.05;6.55;;;8.80;77.50;;;;;;5053640;28;20460;-57
2021/12/24 02:13:54;;;;;;;7.07;6.57;;;8.80;77.60;;;;;;5053526;28;20573;-52
2021/12/24 02:16:37;;;;;;;7.28;6.78;;;8.80;77.60;;;;;;5053366;28;20566;-66
2021/12/24 02:30:07;;;;;;;6.68;6.05;;;8.80;77.20;;;;;;5053202;28;20617;-56
2021/12/24 02:32:34;;;;;;;6.60;6.13;;;8.80;77.40;;;;;;5053193;28;20212;-51
2021/12/24 02:35:02;;;;;;;7.10;6.50;;;8.70;77.50;;;;;;5053117;28;20561;-57
2021/12/24 02:37:30;;;;;;;6.70;6.20;;;8.70;77.60;;;;;;5052745;28;20201;-53
2021/12/24 02:39:57;;;;;;;7.40;6.90;;;8.60;77.90;;;;;;5051655;28;20288;-57
2021/12/24 02:42:24;;;;;;;7.30;6.70;;;8.60;78.00;;;;;;5052976;28;20648;-54
2021/12/24 02:44:52;;;;;;;6.85;6.35;;;8.70;77.80;;;;;;5052891;28;20233;-50
2021/12/24 02:47:39;;;;;;;7.03;6.35;;;8.70;77.70;;;;;;5052924;28;20305;-58
2021/12/24 02:55:34;;;;;;;6.60;6.10;;;8.70;77.60;;;;;;5029878;28;20211;-56
2021/12/24 02:58:01;;;;;;;6.55;6.05;;;8.70;77.50;;;;;;5052733;28;20201;-56
2021/12/24 03:00:29;;;;;;;6.65;6.15;;;8.80;77.40;;;;;;5052625;28;20609;-55
2021/12/24 03:02:56;;;;;;;6.90;6.30;;;8.90;76.90;;;;;;5052632;28;20254;-57
2021/12/24 03:05:25;;;;;;;7.15;6.55;;;8.90;76.80;;;;;;5052661;28;20228;-51
2021/12/24 03:07:54;;;;;;;6.85;6.35;;;8.90;76.70;;;;;;5052592;28;20205;-53
2021/12/24 03:10:22;;;;;;;6.57;6.10;;;8.90;76.70;;;;;;5051245;28;20239;-51
2021/12/24 03:12:52;;;;;;;6.88;6.35;;;9.00;76.50;;;;;;5052669;28;20227;-50
2021/12/24 03:15:23;;;;;;;7.47;6.85;;;9.10;76.30;;;;;;5052768;28;20206;-58
2021/12/24 03:17:50;;;;;;;6.90;6.38;;;9.10;76.10;;;;;;5052571;28;20213;-53
2021/12/24 03:20:17;;;;;;;7.50;7.00;;;9.10;76.20;;;;;;5052600;28;20209;-50
2021/12/24 03:22:51;;;;;;;7.40;6.70;;;9.00;76.30;;;;;;5052533;28;21061;-57
2021/12/24 03:25:19;;;;;;;7.60;7.10;;;9.00;76.40;;;;;;5051080;28;20267;-50
2021/12/24 03:27:46;;;;;;;6.80;6.30;;;8.90;76.60;;;;;;5052539;28;20207;-57
2021/12/24 03:30:14;;;;;;;7.50;6.90;;;8.80;76.90;;;;;;5052382;28;20206;-53
2021/12/24 03:32:41;;;;;;;7.13;6.53;;;8.80;77.10;;;;;;5052538;28;20201;-51
2021/12/24 03:35:09;;;;;;;6.75;6.32;;;8.60;77.40;;;;;;5052500;28;20215;-51
2021/12/24 03:37:36;;;;;;;7.30;6.70;;;8.60;77.70;;;;;;5052263;28;20223;-58
2021/12/24 03:40:03;;;;;;;6.65;6.18;;;8.50;78.10;;;;;;5050889;28;20202;-56
2021/12/24 03:42:36;;;;;;;7.00;6.40;;;8.30;78.40;;;;;;5052400;28;20205;-50
2021/12/24 03:45:18;;;;;;;6.95;6.45;;;8.30;78.90;;;;;;5052309;28;20235;-52
2021/12/24 03:47:52;;;;;;;7.75;6.50;;;8.20;79.40;;;;;;5052428;28;20209;-50
2021/12/24 03:50:19;;;;;;;7.00;6.50;;;8.20;79.80;;;;;;5052276;28;20201;-51
2021/12/24 03:55:27;;;;;;;7.18;6.28;;;8.20;79.90;;;;;;5049660;28;20667;-55
2021/12/24 03:57:55;;;;;;;7.70;7.07;;;8.30;80.00;;;;;;5052143;28;20211;-55
2021/12/24 04:00:24;;;;;;;7.43;6.82;;;8.30;79.70;;;;;;5052116;28;20236;-53
2021/12/24 04:02:51;;;;;;;7.20;6.50;;;8.30;79.70;;;;;;5052012;28;20660;-50
2021/12/24 04:05:19;;;;;;;7.28;6.78;;;8.30;79.40;;;;;;5051976;28;20236;-54
2021/12/24 04:07:46;;;;;;;7.30;6.75;;;8.30;79.50;;;;;;5053087;28;20209;-56
2021/12/24 04:10:22;;;;;;;6.75;6.25;;;8.40;79.30;;;;;;5054429;28;20240;-53
2021/12/24 04:12:50;;;;;;;6.60;6.10;;;8.30;79.50;;;;;;5055765;28;20205;-57
2021/12/24 04:15:18;;;;;;;7.07;6.45;;;8.20;79.80;;;;;;5055735;28;20212;-50
2021/12/24 04:17:45;;;;;;;6.70;6.20;;;8.20;79.90;;;;;;5055604;28;20208;-58
2021/12/24 04:25:41;;;;;;;6.40;6.00;;;8.20;79.80;;;;;;5055527;28;20674;-51
2021/12/24 04:28:08;;;;;;;6.90;6.35;;;8.20;79.80;;;;;;5055297;28;20227;-58
2021/12/24 04:30:46;;;;;;;5.70;5.30;;;8.30;79.50;;;;;;5055436;28;20316;-51
2021/12/24 04:33:19;;;;;;;5.57;5.18;;;8.20;79.60;;;;;;5055406;28;20201;-57
2021/12/24 04:35:56;;;;;;;6.43;6.00;;;8.30;79.70;;;;;;5055370;28;20602;-58
2021/12/24 04:38:44;;;;;;;7.00;6.50;;;8.30;79.50;;;;;;5053685;28;20197;-58
2021/12/24 04:52:41;;;;;;;6.40;6.00;;;8.50;79.30;;;;;;5054849;28;20667;-58
2021/12/24 05:03:33;;;;;;;7.85;7.35;;;8.70;78.60;;;;;;5029838;28;20197;-57
2021/12/24 05:06:12;;;;;;;7.28;6.80;;;8.60;78.60;;;;;;5054788;28;20209;-56
2021/12/24 05:08:50;;;;;;;6.65;6.25;;;8.50;78.70;;;;;;5053279;28;20331;-53
2021/12/24 05:11:17;;;;;;;7.88;7.28;;;8.40;78.90;;;;;;5054492;28;20291;-56
2021/12/24 05:13:44;;;;;;;7.30;6.80;;;8.30;79.30;;;;;;5054488;28;20205;-55
2021/12/24 05:16:22;;;;;;;6.60;6.20;;;8.30;79.50;;;;;;5054469;28;20701;-53
2021/12/24 05:21:37;;;;;;;6.35;5.75;;;8.40;79.60;;;;;;5054511;28;20205;-53
2021/12/24 05:24:06;;;;;;;7.30;6.75;;;8.40;79.60;;;;;;5052920;28;20271;-55
2021/12/24 05:26:34;;;;;;;6.82;6.32;;;8.40;79.60;;;;;;5054258;28;20208;-58
2021/12/24 05:29:02;;;;;;;6.78;6.38;;;8.40;79.60;;;;;;5054366;28;20288;-57
2021/12/24 05:31:30;;;;;;;7.78;7.18;;;8.40;79.70;;;;;;5054267;28;20205;-50
2021/12/24 05:33:58;;;;;;;6.35;5.90;;;8.40;80.00;;;;;;5054244;28;20203;-54
2021/12/24 05:36:26;;;;;;;8.15;7.45;;;8.40;80.00;;;;;;5054200;28;20204;-58
2021/12/24 05:38:54;;;;;;;7.50;6.90;;;8.40;80.00;;;;;;5052652;28;20304;-54
2021/12/24 05:41:21;;;;;;;7.22;6.68;;;8.40;79.90;;;;;;5054021;28;20735;-52
2021/12/24 05:43:49;;;;;;;7.55;7.03;;;8.30;80.10;;;;;;5053872;28;20225;-53
2021/12/24 05:46:16;;;;;;;7.50;7.00;;;8.30;80.10;;;;;;5053970;28;20308;-51
2021/12/24 05:48:43;;;;;;;7.30;6.70;;;8.30;80.40;;;;;;5053952;28;20480;-55
2021/12/24 05:51:11;;;;;;;7.63;6.97;;;8.30;80.20;;;;;;5053865;28;20208;-59
2021/12/24 05:53:39;;;;;;;7.32;6.65;;;8.30;80.20;;;;;;5052255;28;20205;-50
2021/12/24 05:56:06;;;;;;;7.22;6.72;;;8.40;80.40;;;;;;5053640;28;20574;-53
2021/12/24 05:58:33;;;;;;;7.10;5.03;;;8.40;79.80;;;;;;5053740;28;20201;-51
2021/12/24 06:01:00;;;;;;;6.63;6.13;;;8.30;80.30;;;;;;5053600;28;20548;-57
2021/12/24 06:03:27;;;;;;;6.20;5.60;;;8.30;80.80;;;;;;5053592;28;20231;-57
2021/12/24 06:05:54;;;;;;;6.68;6.18;;;8.30;81.50;;;;;;5053488;28;20239;-50
2021/12/24 06:08:22;;;;;;;6.82;6.35;;;8.30;81.30;;;;;;5052096;28;20227;-51
2021/12/24 06:10:49;;;;;;;6.72;6.22;;;8.30;81.00;;;;;;5053434;28;20233;-55
2021/12/24 06:13:16;;;;;;;7.20;6.70;;;8.30;81.00;;;;;;5053500;28;20201;-51
2021/12/24 06:15:45;;;;;;;7.25;6.65;;;8.30;80.90;;;;;;5053490;28;20358;-59
2021/12/24 06:18:21;;;;;;;7.30;6.80;;;8.20;81.30;;;;;;5053377;28;20232;-58
2021/12/24 06:20:48;;;;;;;6.78;6.15;;;8.30;81.30;;;;;;5053298;28;20251;-58
2021/12/24 06:23:18;;;;;;;7.35;6.75;;;8.30;81.20;;;;;;5051974;28;20212;-55
2021/12/24 06:25:46;;;;;;;5.95;5.45;;;8.30;81.60;;;;;;5053074;28;20229;-56
2021/12/24 06:28:13;;;;;;;7.47;6.88;;;8.50;81.60;;;;;;5053263;28;20572;-57
2021/12/24 06:30:41;;;;;;;7.90;7.30;;;8.60;81.30;;;;;;5052758;28;20212;-53
2021/12/24 06:33:09;;;;;;;6.75;6.25;;;8.70;80.90;;;;;;5053057;28;20505;-58
2021/12/24 06:35:37;;;;;;;6.88;6.28;;;8.80;80.50;;;;;;5053141;28;20575;-50
2021/12/24 06:38:05;;;;;;;7.30;6.70;;;8.90;80.40;;;;;;5052512;28;20197;-51
2021/12/24 06:40:33;;;;;;;7.90;7.20;;;8.80;79.90;;;;;;5052659;28;20668;-56
2021/12/24 06:43:02;;;;;;;7.13;6.60;;;8.70;80.30;;;;;;5053044;28;20216;-56
2021/12/24 06:45:29;;;;;;;7.13;6.63;;;8.60;80.80;;;;;;5052927;28;20340;-56
2021/12/24 06:47:58;;;;;;;6.65;6.15;;;8.60;80.70;;;;;;5052833;28;20288;-62
2021/12/24 06:50:26;;;;;;;7.20;6.70;;;8.60;80.90;;;;;;5052517;28;20216;-60
2021/12/24 06:52:54;;;;;;;7.90;7.20;;;8.60;80.70;;;;;;5052831;28;20206;-58
2021/12/24 06:55:21;;;;;;;7.60;7.03;;;8.60;80.50;;;;;;5051522;28;20232;-60
2021/12/24 06:57:48;;;;;;;6.43;5.82;;;8.50;80.70;;;;;;5052766;28;20197;-58
2021/12/24 07:00:19;;;;;;;7.95;7.30;;;8.60;81.00;;;;;;5052598;28;20213;-54
2021/12/24 07:02:47;;;;;;;6.82;6.22;;;8.60;80.60;;;;;;5052682;28;20224;-50
2021/12/24 07:05:14;;;;;;;7.05;6.55;;;8.60;80.60;;;;;;5052725;28;20725;-52
2021/12/24 07:07:41;;;;;;;7.40;6.82;;;8.70;80.30;;;;;;5052575;28;20215;-53
2021/12/24 07:10:08;;;;;;;8.15;7.20;;;8.60;80.60;;;;;;5051245;28;20236;-59
2021/12/24 07:12:36;;;;;;;6.78;6.28;;;8.60;80.80;;;;;;5052559;28;20219;-56
2021/12/24 07:15:03;;;;;;;7.38;6.78;;;8.50;81.20;;;;;;5052620;28;20205;-58
2021/12/24 07:17:31;;;;;;;7.43;6.72;;;8.50;81.20;;;;;;5052663;28;20216;-58
2021/12/24 07:19:58;;;;;;;6.75;6.35;;;8.50;81.10;;;;;;5052649;28;20291;-51
2021/12/24 07:22:24;;;;;;;6.72;6.13;;;8.50;81.40;;;;;;5052370;28;20295;-54
2021/12/24 07:24:51;;;;;;;6.97;6.32;;;8.40;82.10;;;;;;5051152;28;20245;-55
2021/12/24 07:27:19;;;;;;;14.90;6.88;;;8.40;82.60;;;;;;5052506;28;20206;-53
2021/12/24 07:29:46;;;;;;;7.05;6.45;;;8.30;83.20;;;;;;5052229;28;20675;-59
2021/12/24 07:32:12;;;;;;;7.57;6.88;;;8.30;84.00;;;;;;5052430;28;20201;-53
2021/12/24 07:34:41;;;;;;;7.00;6.40;;;8.20;83.90;;;;;;5052393;28;20343;-54
2021/12/24 07:37:08;;;;;;;7.10;6.05;;;8.20;84.40;;;;;;5052256;28;20293;-54
2021/12/24 07:39:34;;;;;;;6.68;6.18;;;8.10;84.20;;;;;;5051228;28;20310;-53
2021/12/24 07:42:01;;;;;;;5.78;5.28;;;7.90;85.00;;;;;;5052299;28;20205;-56
2021/12/24 07:44:30;;;;;;;7.00;6.18;;;7.80;85.40;;;;;;5056275;28;20639;-53
2021/12/24 07:47:00;;;;;;;7.22;6.00;;;7.80;85.70;;;;;;5055977;28;20197;-56
2021/12/24 07:49:39;;;;;;;6.82;5.45;;;7.80;85.80;;;;;;5056238;28;20250;-52
2021/12/24 07:52:12;;;;;;;6.88;6.28;;;7.80;85.60;;;;;;5056181;28;20227;-52
2021/12/24 07:54:41;;;;;;;6.55;5.93;;;7.90;85.50;;;;;;5054521;28;20779;-54
2021/12/24 07:57:10;;;;;;;5.80;5.40;;;7.90;85.30;;;;;;5056096;28;20201;-50
2021/12/24 07:59:38;;;;;;;6.20;5.70;;;7.90;84.90;;;;;;5056040;28;20206;-54
2021/12/24 08:02:10;;;;;;;6.35;5.85;;;7.90;85.00;;;;;;5036092;28;20260;-56
2021/12/24 08:04:39;;;;;;;6.00;5.40;;;7.90;85.20;;;;;;5036010;28;20666;-57
2021/12/24 08:07:08;;;;;;;5.30;4.80;;;7.90;84.90;;;;;;5035812;28;20222;-51
2021/12/24 08:09:37;;;;;;;5.85;5.28;;;7.90;84.90;;;;;;5034257;28;20234;-58
2021/12/24 08:12:05;;;;;;;6.47;5.70;;;8.00;84.70;;;;;;5035792;28;20198;-58
2021/12/24 08:14:32;;;;;;;7.00;6.30;;;8.00;84.60;;;;;;5035857;28;20210;-53
2021/12/24 08:16:59;;;;;;;6.28;5.65;;;8.10;84.40;;;;;;5035774;28;20282;-58
2021/12/24 08:19:26;;;;;;;6.70;6.20;;;8.10;84.30;;;;;;5035560;28;20202;-61
2021/12/24 08:21:53;;;;;;;6.25;5.63;;;8.20;84.30;;;;;;5035642;28;20209;-57
2021/12/24 08:24:21;;;;;;;6.68;6.10;;;8.20;84.30;;;;;;5040098;28;20205;-56
2021/12/24 08:26:48;;;;;;;7.90;7.10;;;8.30;84.10;;;;;;5055452;28;20233;-62
2021/12/24 08:29:16;;;;;;;5.80;5.38;;;8.30;84.10;;;;;;5055458;28;20205;-58
2021/12/24 08:31:44;;;;;;;5.90;5.50;;;8.30;84.20;;;;;;5055370;28;20209;-58
2021/12/24 08:34:11;;;;;;;6.75;6.07;;;8.30;84.30;;;;;;5055148;28;20201;-55
2021/12/24 08:36:38;;;;;;;6.15;5.65;;;8.30;84.20;;;;;;5055212;28;20213;-57
2021/12/24 08:39:06;;;;;;;7.20;6.60;;;8.40;84.10;;;;;;5053800;28;20206;-52
2021/12/24 08:41:34;;;;;;;6.10;5.40;;;8.50;83.90;;;;;;5055095;28;20205;-58
2021/12/24 08:44:01;;;;;;;6.05;5.50;;;8.50;83.80;;;;;;5055010;28;20292;-53
2021/12/24 08:46:28;;;;;;;6.50;5.90;;;8.50;83.70;;;;;;5054834;28;20239;-60
2021/12/24 08:48:55;;;;;;;6.38;5.88;;;8.50;83.70;;;;;;5054797;28;20211;-55
2021/12/24 08:51:22;;;;;;;5.88;5.38;;;8.50;83.80;;;;;;5054887;28;20218;-56
2021/12/24 08:53:48;;;;;;;6.40;5.80;;;8.60;83.70;;;;;;5053179;28;20297;-57
2021/12/24 08:56:15;;;;;;;6.70;6.13;;;8.60;83.60;;;;;;5054760;28;20201;-55
2021/12/24 08:58:43;;;;;;;6.10;5.50;;;8.60;83.70;;;;;;5054719;28;20211;-58
2021/12/24 09:01:12;;;;;;;6.00;5.50;;;8.60;83.70;;;;;;5054494;28;20584;-56
2021/12/24 09:03:39;;;;;;;6.30;5.70;;;8.60;83.70;;;;;;5054279;28;20224;-54
2021/12/24 09:06:06;;;;;;;6.20;5.70;;;8.60;83.80;;;;;;5054566;28;20316;-50
2021/12/24 09:08:34;;;;;;;5.97;5.47;;;8.60;84.10;;;;;;5053129;28;20198;-55
2021/12/24 09:11:01;;;;;;;6.40;5.50;;;8.50;84.40;;;;;;5054252;28;20233;-58
2021/12/24 09:13:28;;;;;;;7.25;6.55;;;8.50;84.60;;;;;;5054466;28;20288;-51
2021/12/24 09:15:56;;;;;;;6.72;6.03;;;8.40;85.00;;;;;;5054383;28;20201;-56
2021/12/24 09:18:23;;;;;;;5.15;4.75;;;8.40;85.20;;;;;;5054324;28;20206;-54
2021/12/24 09:20:51;;;;;;;6.20;5.60;;;8.30;85.20;;;;;;5054424;28;20237;-55
2021/12/24 09:23:18;;;;;;;6.20;5.60;;;8.30;85.30;;;;;;5052901;28;20240;-55
2021/12/24 09:25:45;;;;;;;6.53;5.90;;;8.30;85.80;;;;;;5054264;28;20330;-57
2021/12/24 09:28:12;;;;;;;6.05;5.45;;;8.30;86.00;;;;;;5054325;28;20201;-55
2021/12/24 09:30:40;;;;;;;6.57;5.95;;;8.30;86.10;;;;;;5054188;28;20214;-52
2021/12/24 09:33:09;;;;;;;6.60;5.90;;;8.30;86.20;;;;;;5054221;28;20511;-53
2021/12/24 09:35:36;;;;;;;6.97;6.40;;;8.30;86.50;;;;;;5054153;28;20212;-57
2021/12/24 09:38:03;;;;;;;6.93;6.35;;;8.20;87.10;;;;;;5053994;28;20209;-56
2021/12/24 09:40:33;;;;;;;7.68;6.75;;;8.10;88.10;;;;;;5053232;28;20201;-60
2021/12/24 09:43:00;;;;;;;10.35;6.57;;;8.00;88.60;;;;;;5053826;28;20255;-56
2021/12/24 09:45:27;;;;;;;6.60;6.00;;;7.90;89.70;;;;;;5053867;28;20312;-55
2021/12/24 09:47:54;;;;;;;7.40;6.65;;;7.90;89.60;;;;;;5053978;28;20292;-57
2021/12/24 09:50:25;;;;;;;6.53;5.80;;;7.90;89.60;;;;;;5054153;28;20263;-56
2021/12/24 09:52:53;;;;;;;6.15;5.55;;;7.90;89.80;;;;;;5053658;28;20228;-57
2021/12/24 09:55:23;;;;;;;7.22;5.80;;;7.80;90.20;;;;;;5052412;28;20213;-52
2021/12/24 09:57:51;;;;;;;6.07;5.47;;;7.80;90.50;;;;;;5053694;28;20197;-57
2021/12/24 10:00:21;;;;;;;7.75;5.50;;;7.80;90.50;;;;;;5053710;28;20281;-53
2021/12/24 10:02:52;;;;;;;7.47;6.30;;;7.80;90.40;;;;;;5053583;28;20308;-60
2021/12/24 10:05:34;;;;;;;6.57;5.97;;;7.80;91.10;;;;;;5052753;28;20225;-55
2021/12/24 10:08:07;;;;;;;6.90;6.20;;;7.70;91.20;;;;;;5053236;28;20207;-53
2021/12/24 10:10:35;;;;;;;7.07;6.38;;;7.80;91.40;;;;;;5053176;28;20236;-51
2021/12/24 10:13:34;;;;;;;6.80;5.82;;;7.80;91.40;;;;;;5053439;28;20614;-61
2021/12/24 10:16:03;;;;;;;7.25;5.50;;;7.80;91.10;;;;;;5053382;28;20292;-55
2021/12/24 10:18:34;;;;;;;5.82;5.15;;;7.80;91.10;;;;;;5053320;28;20217;-58
2021/12/24 10:21:05;;;;;;;5.22;4.65;;;7.80;90.60;;;;;;5053307;28;20202;-53
2021/12/24 10:23:51;;;;;;;5.40;4.90;;;7.80;91.00;;;;;;5051839;28;20571;-50
2021/12/24 10:26:25;;;;;;;8.63;5.90;;;7.80;91.10;;;;;;5033161;28;20244;-61
2021/12/24 10:28:56;;;;;;;6.07;5.10;;;7.80;91.00;;;;;;5033194;28;20563;-57
2021/12/24 10:31:25;;;;;;;10.13;5.82;;;7.80;91.40;;;;;;5047452;28;20206;-55
2021/12/24 10:34:10;;;;;;;8.13;4.57;;;7.80;91.20;;;;;;5053104;28;20327;-56
2021/12/24 10:36:59;;;;;;;5.10;4.50;;;7.90;90.80;;;;;;5053066;28;20293;-55
2021/12/24 10:39:28;;;;;;;5.80;4.38;;;7.90;90.60;;;;;;5051485;28;20208;-51
2021/12/24 10:41:57;;;;;;;5.70;4.55;;;7.90;90.40;;;;;;5053031;28;20558;-55
2021/12/24 10:44:27;;;;;;;5.53;4.88;;;7.80;90.60;;;;;;5052976;28;20215;-50
2021/12/24 10:47:00;;;;;;;5.82;4.10;;;7.80;90.90;;;;;;5052896;28;20240;-58
2021/12/24 10:49:48;;;;;;;5.65;4.13;;;7.90;90.70;;;;;;5052911;28;20579;-54
2021/12/24 10:52:30;;;;;;;5.15;4.30;;;7.90;90.70;;;;;;5052896;28;20201;-52
2021/12/24 10:54:59;;;;;;;5.10;4.60;;;7.90;90.50;;;;;;5051124;28;20210;-58
2021/12/24 10:57:28;;;;;;;5.45;4.68;;;7.90;90.70;;;;;;5052715;28;20570;-56
2021/12/24 10:59:57;;;;;;;4.05;3.63;;;7.90;90.50;;;;;;5052751;28;20233;-56
2021/12/24 11:02:30;;;;;;;5.55;4.50;;;7.90;90.40;;;;;;5052548;28;20225;-54
2021/12/24 11:04:57;;;;;;;5.78;4.68;;;8.00;90.40;;;;;;5052601;28;20305;-51
2021/12/24 11:07:40;;;;;;;5.45;4.72;;;8.00;90.50;;;;;;5052646;28;20237;-52
2021/12/24 11:10:12;;;;;;;4.93;4.43;;;7.90;90.40;;;;;;5050841;28;20283;-52
2021/12/24 11:12:41;;;;;;;5.15;4.68;;;7.90;90.80;;;;;;5052453;28;20786;-65
2021/12/24 11:15:24;;;;;;;4.38;3.95;;;7.90;91.10;;;;;;5052590;28;20205;-59
2021/12/24 11:17:54;;;;;;;4.22;3.67;;;7.80;91.20;;;;;;5054499;28;20206;-57
2021/12/24 11:20:21;;;;;;;4.57;4.10;;;7.80;91.30;;;;;;5056697;28;20676;-53
2021/12/24 11:22:55;;;;;;;4.57;4.00;;;7.80;91.50;;;;;;5056628;28;20258;-57
2021/12/24 11:25:25;;;;;;;5.38;3.80;;;7.80;91.30;;;;;;5054227;28;20568;-57
2021/12/24 11:27:53;;;;;;;3.80;3.42;;;7.90;91.20;;;;;;5056538;28;20207;-51
2021/12/24 11:30:22;;;;;;;4.82;3.60;;;7.90;90.90;;;;;;5056430;28;20215;-52
2021/12/24 11:32:50;;;;;;;5.10;3.67;;;7.90;90.80;;;;;;5056509;28;20224;-54
2021/12/24 11:35:18;;;;;;;4.20;3.60;;;8.00;91.00;;;;;;5056273;28;20205;-55
2021/12/24 11:37:47;;;;;;;3.40;3.10;;;8.00;90.70;;;;;;5056364;28;20201;-57
2021/12/24 11:40:17;;;;;;;5.20;3.38;;;7.90;91.10;;;;;;5054898;28;20665;-57
2021/12/24 11:42:50;;;;;;;6.43;4.10;;;7.80;91.50;;;;;;5056361;28;20291;-53
2021/12/24 11:45:17;;;;;;;4.63;3.30;;;7.80;91.70;;;;;;5056195;28;20263;-54
2021/12/24 11:47:45;;;;;;;3.55;3.25;;;7.90;91.60;;;;;;5056230;28;20204;-51
2021/12/24 11:50:11;;;;;;;4.00;3.63;;;7.90;91.30;;;;;;5055986;28;20204;-56
2021/12/24 11:52:40;;;;;;;3.22;2.92;;;8.00;91.30;;;;;;5056118;28;20318;-58
2021/12/24 11:55:08;;;;;;;5.43;3.65;;;8.00;91.30;;;;;;5054610;28;20210;-53
2021/12/24 11:57:36;;;;;;;3.30;3.00;;;8.10;91.00;;;;;;5056051;28;20209;-49
2021/12/24 12:00:13;;;;;;;3.47;3.17;;;8.10;90.70;;;;;;5055975;28;20219;-58
2021/12/24 12:02:45;;;;;;;3.40;3.08;;;8.10;90.80;;;;;;5055680;28;20221;-54
2021/12/24 12:05:18;;;;;;;3.30;3.00;;;8.10;91.00;;;;;;5055828;28;20206;-52
2021/12/24 12:07:46;;;;;;;3.22;2.92;;;8.10;91.20;;;;;;5055755;28;20737;-56
2021/12/24 12:10:13;;;;;;;3.00;2.80;;;8.10;91.40;;;;;;5054171;28;20252;-51
2021/12/24 12:12:42;;;;;;;3.30;3.10;;;8.20;91.20;;;;;;5055648;28;20228;-51
2021/12/24 12:15:27;;;;;;;3.50;2.90;;;8.10;91.10;;;;;;5055783;28;20201;-56
2021/12/24 12:17:58;;;;;;;3.45;2.95;;;8.10;91.30;;;;;;5055569;28;20655;-54
2021/12/24 12:20:45;;;;;;;2.38;2.17;;;8.10;90.90;;;;;;5055654;28;20608;-51
2021/12/24 12:23:49;;;;;;;3.38;2.70;;;8.10;91.20;;;;;;5053863;28;20521;-56
2021/12/24 12:26:34;;;;;;;3.25;2.72;;;8.20;91.10;;;;;;5035520;28;20261;-57
2021/12/24 12:29:24;;;;;;;2.92;2.63;;;8.20;90.70;;;;;;5034656;28;20281;-56
2021/12/24 12:31:55;;;;;;;2.72;2.53;;;8.30;90.50;;;;;;5053494;28;20210;-62
2021/12/24 12:34:51;;;;;;;4.05;2.40;;;8.40;89.90;;;;;;5055270;28;20201;-51
2021/12/24 12:37:20;;;;;;;2.60;2.40;;;8.50;89.60;;;;;;5055109;28;20210;-51
2021/12/24 12:39:48;;;;;;;2.70;2.50;;;8.50;89.20;;;;;;5053839;28;20205;-58
2021/12/24 12:42:17;;;;;;;2.90;2.70;;;8.60;89.20;;;;;;5055183;28;20198;-58
2021/12/24 12:44:48;;;;;;;2.15;1.95;;;8.60;88.70;;;;;;5055102;28;20308;-56
2021/12/24 12:47:22;;;;;;;2.47;2.30;;;8.70;88.20;;;;;;5054912;28;20319;-52
2021/12/24 12:49:54;;;;;;;3.00;2.70;;;8.70;88.20;;;;;;5055006;28;20207;-50
2021/12/24 12:52:27;;;;;;;2.50;2.30;;;8.70;88.10;;;;;;5054868;28;20197;-52
2021/12/24 12:54:56;;;;;;;2.70;2.50;;;8.80;87.80;;;;;;5053374;28;20214;-58
2021/12/24 12:57:29;;;;;;;2.50;2.30;;;8.80;87.80;;;;;;5054901;28;20206;-51
2021/12/24 13:00:24;;;;;;;2.38;2.00;;;8.80;87.80;;;;;;5054701;28;20236;-59
2021/12/24 13:03:10;;;;;;;2.25;2.05;;;8.80;87.90;;;;;;5054772;28;20229;-52
2021/12/24 13:06:08;;;;;;;2.30;2.20;;;8.80;87.80;;;;;;5054719;28;20205;-58
2021/12/24 13:08:38;;;;;;;2.10;2.00;;;8.80;87.50;;;;;;5053229;28;20216;-52
2021/12/24 13:11:07;;;;;;;2.40;2.20;;;8.80;87.50;;;;;;5054434;28;20303;-54
2021/12/24 13:13:45;;;;;;;2.60;2.40;;;8.90;87.60;;;;;;5054576;28;20244;-51
2021/12/24 13:16:17;;;;;;;2.30;2.20;;;8.90;87.20;;;;;;5054433;28;20205;-55
2021/12/24 13:18:51;;;;;;;2.60;2.40;;;8.90;86.90;;;;;;5054423;28;20676;-56
2021/12/24 13:24:13;;;;;;;2.30;2.20;;;8.90;87.20;;;;;;5028118;28;20206;-56
2021/12/24 13:26:40;;;;;;;2.85;2.53;;;8.90;87.30;;;;;;5054214;28;20625;-56
2021/12/24 13:29:12;;;;;;;2.60;2.40;;;8.80;87.50;;;;;;5054140;28;20548;-57
2021/12/24 13:31:42;;;;;;;3.17;2.70;;;8.80;88.00;;;;;;5054205;28;20667;-56
2021/12/24 13:34:14;;;;;;;2.83;2.70;;;8.70;88.40;;;;;;5054236;28;20208;-52
2021/12/24 13:36:41;;;;;;;3.97;3.13;;;8.70;88.60;;;;;;5054005;28;20568;-58
2021/12/24 13:39:13;;;;;;;2.78;2.58;;;8.70;88.90;;;;;;5052615;28;20301;-54
2021/12/24 13:41:41;;;;;;;2.65;2.45;;;8.70;88.90;;;;;;5053107;28;20689;-55
2021/12/24 13:44:21;;;;;;;3.10;2.90;;;8.80;88.80;;;;;;5053965;28;20292;-51
2021/12/24 13:47:05;;;;;;;2.55;2.35;;;8.70;88.70;;;;;;5053898;28;20703;-56
2021/12/24 13:50:04;;;;;;;2.85;2.65;;;8.70;88.80;;;;;;5053883;28;20224;-52
2021/12/24 13:55:22;;;;;;;2.80;2.60;;;8.70;88.70;;;;;;5052271;28;20284;-50
2021/12/24 13:57:54;;;;;;;4.28;3.30;;;8.80;88.50;;;;;;5053702;28;20734;-58
2021/12/24 14:00:22;;;;;;;3.15;2.70;;;8.80;88.30;;;;;;5053706;28;20222;-56
2021/12/24 14:02:54;;;;;;;2.72;2.55;;;8.80;88.20;;;;;;5053637;28;20223;-53
2021/12/24 14:05:21;;;;;;;2.67;2.47;;;8.90;88.20;;;;;;5053579;28;20198;-54
2021/12/24 14:08:04;;;;;;;2.80;2.60;;;8.80;88.10;;;;;;5053474;28;20229;-57
2021/12/24 14:10:31;;;;;;;2.95;2.63;;;8.80;88.10;;;;;;5052331;28;20240;-56
2021/12/24 14:13:05;;;;;;;2.80;2.60;;;8.80;88.20;;;;;;5053560;28;20284;-53
2021/12/24 14:15:42;;;;;;;3.30;3.00;;;8.80;88.70;;;;;;5053444;28;20211;-57
2021/12/24 14:18:31;;;;;;;3.00;2.70;;;8.80;88.60;;;;;;5053304;28;20282;-58
2021/12/24 14:23:42;;;;;;;2.83;2.63;;;8.80;88.80;;;;;;5051629;28;20205;-57
2021/12/24 14:26:11;;;;;;;2.80;2.60;;;8.80;88.50;;;;;;5053196;28;20209;-55
2021/12/24 14:28:38;;;;;;;2.50;2.30;;;8.80;88.40;;;;;;5053221;28;20208;-55
2021/12/24 14:31:06;;;;;;;2.38;2.22;;;8.80;88.20;;;;;;5052953;28;20205;-56
2021/12/24 14:33:37;;;;;;;2.22;2.10;;;8.80;88.30;;;;;;5053111;28;20668;-53
2021/12/24 14:36:04;;;;;;;2.63;2.42;;;8.90;87.80;;;;;;5053312;28;20288;-55
2021/12/24 14:38:32;;;;;;;2.40;2.20;;;8.80;87.30;;;;;;5051604;28;20249;-56
2021/12/24 14:41:00;;;;;;;2.30;2.20;;;8.90;87.70;;;;;;5052989;28;20212;-53
2021/12/24 14:43:35;;;;;;;2.20;2.10;;;8.90;87.20;;;;;;5052763;28;20684;-58